地図

経路データ

SID SEASON NUMBER BASIN SUBBASIN NAME ISO_TIME NATURE LAT LON WMO_WIND WMO_PRES WMO_AGENCY TRACK_TYPE DIST2LAND LANDFALL IFLAG USA_AGENCY USA_ATCF_ID USA_LAT USA_LON USA_RECORD USA_STATUS USA_WIND USA_PRES USA_SSHS USA_R34_NE USA_R34_SE USA_R34_SW USA_R34_NW USA_R50_NE USA_R50_SE USA_R50_SW USA_R50_NW USA_R64_NE USA_R64_SE USA_R64_SW USA_R64_NW USA_POCI USA_ROCI USA_RMW USA_EYE TOKYO_LAT TOKYO_LON TOKYO_GRADE TOKYO_WIND TOKYO_PRES TOKYO_R50_DIR TOKYO_R50_LONG TOKYO_R50_SHORT TOKYO_R30_DIR TOKYO_R30_LONG TOKYO_R30_SHORT TOKYO_LAND CMA_LAT CMA_LON CMA_CAT CMA_WIND CMA_PRES HKO_LAT HKO_LON HKO_CAT HKO_WIND HKO_PRES NEWDELHI_LAT NEWDELHI_LON NEWDELHI_GRADE NEWDELHI_WIND NEWDELHI_PRES NEWDELHI_CI NEWDELHI_DP NEWDELHI_POCI REUNION_LAT REUNION_LON REUNION_TYPE REUNION_WIND REUNION_PRES REUNION_TNUM REUNION_CI REUNION_RMW REUNION_R34_NE REUNION_R34_SE REUNION_R34_SW REUNION_R34_NW REUNION_R50_NE REUNION_R50_SE REUNION_R50_SW REUNION_R50_NW REUNION_R64_NE REUNION_R64_SE REUNION_R64_SW REUNION_R64_NW BOM_LAT BOM_LON BOM_TYPE BOM_WIND BOM_PRES BOM_TNUM BOM_CI BOM_RMW BOM_R34_NE BOM_R34_SE BOM_R34_SW BOM_R34_NW BOM_R50_NE BOM_R50_SE BOM_R50_SW BOM_R50_NW BOM_R64_NE BOM_R64_SE BOM_R64_SW BOM_R64_NW BOM_ROCI BOM_POCI BOM_EYE BOM_POS_METHOD BOM_PRES_METHOD NADI_LAT NADI_LON NADI_CAT NADI_WIND NADI_PRES WELLINGTON_LAT WELLINGTON_LON WELLINGTON_WIND WELLINGTON_PRES DS824_LAT DS824_LON DS824_STAGE DS824_WIND DS824_PRES TD9636_LAT TD9636_LON TD9636_STAGE TD9636_WIND TD9636_PRES TD9635_LAT TD9635_LON TD9635_WIND TD9635_PRES TD9635_ROCI NEUMANN_LAT NEUMANN_LON NEUMANN_CLASS NEUMANN_WIND NEUMANN_PRES MLC_LAT MLC_LON MLC_CLASS MLC_WIND MLC_PRES USA_GUST BOM_GUST BOM_GUST_PER REUNION_GUST REUNION_GUST_PER USA_SEAHGT USA_SEARAD_NE USA_SEARAD_SE USA_SEARAD_SW USA_SEARAD_NW STORM_SPEED STORM_DIR
1861275N19299 1861 27 NA NA NOT_NAMED 1861-10-01 12:00:00 TS 18.7000 -61.0000 main 486 423 _____________O -1 18.7000 -61.0000 TD 30 12 280
1861275N19299 1861 27 NA NA NOT_NAMED 1861-10-01 15:00:00 TS 18.8004 -61.6099 main 423 362 _____________P -1 18.8004 -61.6099 TD 30 12 280
1861275N19299 1861 27 NA NA NOT_NAMED 1861-10-01 18:00:00 TS 18.9000 -62.2000 main 362 312 _____________O -1 18.9000 -62.2000 TD 30 11 280
1861275N19299 1861 27 NA NA NOT_NAMED 1861-10-01 21:00:00 TS 18.9998 -62.7576 main 302 254 _____________P -1 18.9998 -62.7576 TD 30 11 281
1861275N19299 1861 27 NA NA NOT_NAMED 1861-10-02 00:00:00 TS 19.1000 -63.3000 main 254 209 _____________O -1 19.1000 -63.3000 TD 30 11 281
1861275N19299 1861 27 NA NA NOT_NAMED 1861-10-02 03:00:00 TS 19.1998 -63.8501 main 200 161 _____________P -1 19.1998 -63.8501 TD 30 11 281
1861275N19299 1861 27 NA NA NOT_NAMED 1861-10-02 06:00:00 TS 19.3000 -64.4000 main 161 124 _____________O -1 19.3000 -64.4000 TD 30 11 279
1861275N19299 1861 27 NA NA NOT_NAMED 1861-10-02 09:00:00 TS 19.3627 -64.9952 main 128 113 _____________P -1 19.3627 -64.9952 TD 32 11 281
1861275N19299 1861 27 NA NA NOT_NAMED 1861-10-02 12:00:00 TS 19.5000 -65.5000 main 123 123 _____________O -1 19.5000 -65.5000 TS 35 9 301
1861275N19299 1861 27 NA NA NOT_NAMED 1861-10-02 15:00:00 TS 19.8122 -65.7951 main 156 156 _____________P -1 19.8122 -65.7951 TS 35 8 326
1861275N19299 1861 27 NA NA NOT_NAMED 1861-10-02 18:00:00 TS 20.2000 -66.0000 main 201 201 _____________O -1 20.2000 -66.0000 TS 35 9 330
1861275N19299 1861 27 NA NA NOT_NAMED 1861-10-02 21:00:00 TS 20.5500 -66.2501 main 234 234 _____________P -1 20.5500 -66.2501 TS 35 8 326
1861275N19299 1861 27 NA NA NOT_NAMED 1861-10-03 00:00:00 TS 20.9000 -66.5000 main 279 279 _____________O -1 20.9000 -66.5000 TS 35 9 327
1861275N19299 1861 27 NA NA NOT_NAMED 1861-10-03 03:00:00 TS 21.2575 -66.7501 main 324 324 _____________P -1 21.2575 -66.7501 TS 35 8 326
1861275N19299 1861 27 NA NA NOT_NAMED 1861-10-03 06:00:00 TS 21.6000 -67.0000 main 351 351 _____________O -1 21.6000 -67.0000 TS 35 8 325
1861275N19299 1861 27 NA NA NOT_NAMED 1861-10-03 09:00:00 TS 21.9225 -67.2575 main 357 357 _____________P -1 21.9225 -67.2575 TS 37 8 322
1861275N19299 1861 27 NA NA NOT_NAMED 1861-10-03 12:00:00 TS 22.2000 -67.5000 main 374 374 _____________O -1 22.2000 -67.5000 TS 40 7 319
1861275N19299 1861 27 NA NA NOT_NAMED 1861-10-03 15:00:00 TS 22.4150 -67.7151 main 384 384 _____________P -1 22.4150 -67.7151 TS 40 5 317
1861275N19299 1861 27 NA NA NOT_NAMED 1861-10-03 18:00:00 TS 22.6000 -67.9000 main 396 396 _____________O -1 22.6000 -67.9000 TS 40 5 321
1861275N19299 1861 27 NA NA NOT_NAMED 1861-10-03 21:00:00 TS 22.8000 -68.0576 main 408 408 _____________P -1 22.8000 -68.0576 TS 40 5 325
1861275N19299 1861 27 NA NA NOT_NAMED 1861-10-04 00:00:00 TS 23.0000 -68.2000 main 423 423 _____________O -1 23.0000 -68.2000 TS 40 5 326
1861275N19299 1861 27 NA NA NOT_NAMED 1861-10-04 03:00:00 TS 23.2000 -68.3500 main 435 435 _____________P -1 23.2000 -68.3500 TS 40 5 325
1861275N19299 1861 27 NA NA NOT_NAMED 1861-10-04 06:00:00 TS 23.4000 -68.5000 main 452 452 _____________O -1 23.4000 -68.5000 TS 40 5 326
1861275N19299 1861 27 NA NA NOT_NAMED 1861-10-04 09:00:00 TS 23.5925 -68.6426 main 470 466 _____________P -1 23.5925 -68.6426 TS 42 5 326
1861275N19299 1861 27 NA NA NOT_NAMED 1861-10-04 12:00:00 TS 23.8000 -68.8000 main 484 484 _____________O -1 23.8000 -68.8000 TS 45 6 324
1861275N19299 1861 27 NA NA NOT_NAMED 1861-10-04 15:00:00 TS 24.0500 -68.9999 main 508 505 _____________P -1 24.0500 -68.9999 TS 45 6 324
1861275N19299 1861 27 NA NA NOT_NAMED 1861-10-04 18:00:00 TS 24.3000 -69.2000 main 521 521 _____________O -1 24.3000 -69.2000 TS 45 6 325
1861275N19299 1861 27 NA NA NOT_NAMED 1861-10-04 21:00:00 TS 24.4999 -69.3502 main 521 521 _____________P -1 24.4999 -69.3502 TS 45 5 326
1861275N19299 1861 27 NA NA NOT_NAMED 1861-10-05 00:00:00 TS 24.7000 -69.5000 main 530 530 _____________O -1 24.7000 -69.5000 TS 45 6 325
1861275N19299 1861 27 NA NA NOT_NAMED 1861-10-05 03:00:00 TS 24.9500 -69.6999 main 542 536 _____________P -1 24.9500 -69.6999 TS 45 6 324
1861275N19299 1861 27 NA NA NOT_NAMED 1861-10-05 06:00:00 TS 25.2000 -69.9000 main 547 547 _____________O -1 25.2000 -69.9000 TS 45 5 324
1861275N19299 1861 27 NA NA NOT_NAMED 1861-10-05 09:00:00 TS 25.3924 -70.0502 main 554 554 _____________P -1 25.3924 -70.0502 TS 45 5 326
1861275N19299 1861 27 NA NA NOT_NAMED 1861-10-05 12:00:00 TS 25.6000 -70.2000 main 568 568 _____________O -1 25.6000 -70.2000 TS 45 6 328
1861275N19299 1861 27 NA NA NOT_NAMED 1861-10-05 15:00:00 TS 25.8925 -70.3999 main 588 588 _____________P -1 25.8925 -70.3999 TS 45 7 329
1861275N19299 1861 27 NA NA NOT_NAMED 1861-10-05 18:00:00 TS 26.2000 -70.6000 main 609 609 _____________O -1 26.2000 -70.6000 TS 45 6 330
1861275N19299 1861 27 NA NA NOT_NAMED 1861-10-05 21:00:00 TS 26.4500 -70.7577 main 622 622 _____________P -1 26.4500 -70.7577 TS 45 6 332
1861275N19299 1861 27 NA NA NOT_NAMED 1861-10-06 00:00:00 TS 26.7000 -70.9000 main 650 650 _____________O -1 26.7000 -70.9000 TS 45 6 335
1861275N19299 1861 27 NA NA NOT_NAMED 1861-10-06 03:00:00 TS 27.0000 -71.0500 main 676 676 _____________P -1 27.0000 -71.0500 TS 47 7 336
1861275N19299 1861 27 NA NA NOT_NAMED 1861-10-06 06:00:00 TS 27.3000 -71.2000 main 705 705 _____________O -1 27.3000 -71.2000 TS 50 6 333
1861275N19299 1861 27 NA NA NOT_NAMED 1861-10-06 09:00:00 TS 27.5275 -71.3502 main 709 708 _____________P -1 27.5275 -71.3502 TS 50 6 332
1861275N19299 1861 27 NA NA NOT_NAMED 1861-10-06 12:00:00 TS 27.8000 -71.5000 main 713 708 _____________O -1 27.8000 -71.5000 TS 50 7 339
1861275N19299 1861 27 NA NA NOT_NAMED 1861-10-06 15:00:00 TS 28.2200 -71.6574 main 714 714 _____________P -1 28.2200 -71.6574 TS 50 9 344
1861275N19299 1861 27 NA NA NOT_NAMED 1861-10-06 18:00:00 TS 28.7000 -71.8000 main 733 733 _____________O -1 28.7000 -71.8000 TS 50 10 348
1861275N19299 1861 27 NA NA NOT_NAMED 1861-10-06 21:00:00 TS 29.1874 -71.9001 main 750 708 _____________P -1 29.1874 -71.9001 TS 50 9 349
1861275N19299 1861 27 NA NA NOT_NAMED 1861-10-07 00:00:00 TS 29.6000 -72.0000 main 708 684 _____________O -1 29.6000 -72.0000 TS 50 7 342
1861275N19299 1861 27 NA NA NOT_NAMED 1861-10-07 03:00:00 TS 29.8450 -72.1501 main 679 655 _____________P -1 29.8450 -72.1501 TS 50 5 327
1861275N19299 1861 27 NA NA NOT_NAMED 1861-10-07 06:00:00 TS 30.0000 -72.3000 main 655 640 _____________O -1 30.0000 -72.3000 TS 50 4 323
1861275N19299 1861 27 NA NA NOT_NAMED 1861-10-07 09:00:00 TS 30.1425 -72.4076 main 640 617 _____________P -1 30.1425 -72.4076 TS 50 3 330
1861275N19299 1861 27 NA NA NOT_NAMED 1861-10-07 12:00:00 TS 30.3000 -72.5000 main 617 593 _____________O -1 30.3000 -72.5000 TS 50 4 337
1861275N19299 1861 27 NA NA NOT_NAMED 1861-10-07 15:00:00 TS 30.5350 -72.6074 main 593 561 _____________P -1 30.5350 -72.6074 TS 50 5 341
1861275N19299 1861 27 NA NA NOT_NAMED 1861-10-07 18:00:00 TS 30.8000 -72.7000 main 561 537 _____________O -1 30.8000 -72.7000 TS 50 5 345
1861275N19299 1861 27 NA NA NOT_NAMED 1861-10-07 21:00:00 TS 31.0500 -72.7650 main 537 512 _____________P -1 31.0500 -72.7650 TS 50 5 350
1861275N19299 1861 27 NA NA NOT_NAMED 1861-10-08 00:00:00 TS 31.3000 -72.8000 main 512 495 _____________O -1 31.3000 -72.8000 TS 50 5 355
1861275N19299 1861 27 NA NA NOT_NAMED 1861-10-08 03:00:00 TS 31.5500 -72.8076 main 487 471 _____________P -1 31.5500 -72.8076 TS 50 5 2
1861275N19299 1861 27 NA NA NOT_NAMED 1861-10-08 06:00:00 TS 31.8000 -72.8000 main 471 456 _____________O -1 31.8000 -72.8000 TS 50 5 1
1861275N19299 1861 27 NA NA NOT_NAMED 1861-10-08 09:00:00 TS 32.0425 -72.8000 main 456 434 _____________P -1 32.0425 -72.8000 TS 47 5 2
1861275N19299 1861 27 NA NA NOT_NAMED 1861-10-08 12:00:00 TS 32.3000 -72.8000 main 434 412 _____________O -1 32.3000 -72.8000 TS 45 6 3
1861275N19299 1861 27 NA NA NOT_NAMED 1861-10-08 15:00:00 TS 32.6000 -72.8000 main 412 391 _____________P -1 32.6000 -72.8000 TS 45 6 1
1861275N19299 1861 27 NA NA NOT_NAMED 1861-10-08 18:00:00 TS 32.9000 -72.8000 main 391 379 _____________O -1 32.9000 -72.8000 TS 45 6 0
1861275N19299 1861 27 NA NA NOT_NAMED 1861-10-08 21:00:00 TS 33.1500 -72.8149 main 379 361 _____________P -1 33.1500 -72.8149 TS 45 5 2
1861275N19299 1861 27 NA NA NOT_NAMED 1861-10-09 00:00:00 TS 33.4000 -72.8000 main 361 346 _____________O -1 33.4000 -72.8000 TS 45 6 9
1861275N19299 1861 27 NA NA NOT_NAMED 1861-10-09 03:00:00 TS 33.7000 -72.7077 main 346 331 _____________P -1 33.7000 -72.7077 TS 45 6 16
1861275N19299 1861 27 NA NA NOT_NAMED 1861-10-09 06:00:00 TS 34.0000 -72.6000 main 331 318 _____________O -1 34.0000 -72.6000 TS 45 6 7
1861275N19299 1861 27 NA NA NOT_NAMED 1861-10-09 09:00:00 TS 34.2569 -72.6316 main 311 300 _____________P -1 34.2569 -72.6316 TS 45 5 9
1861275N19299 1861 27 NA NA NOT_NAMED 1861-10-09 12:00:00 TS 34.5000 -72.5000 main 308 308 _____________O -1 34.5000 -72.5000 TS 45 8 49
1861275N19299 1861 27 NA NA NOT_NAMED 1861-10-09 15:00:00 TS 34.7507 -71.9330 main 344 344 _____________P -1 34.7507 -71.9330 TS 45 12 65
1861275N19299 1861 27 NA NA NOT_NAMED 1861-10-09 18:00:00 TS 35.0000 -71.2000 main 398 398 _____________O -1 35.0000 -71.2000 TS 45 12 65
1861275N19299 1861 27 NA NA NOT_NAMED 1861-10-09 21:00:00 TS 35.2488 -70.6366 main 447 445 _____________P -1 35.2488 -70.6366 TS 45 11 63
1861275N19299 1861 27 NA NA NOT_NAMED 1861-10-10 00:00:00 TS 35.5000 -70.0000 main 496 496 _____________O -1 35.5000 -70.0000 TS 45 14 69
1861275N19299 1861 27 NA NA NOT_NAMED 1861-10-10 03:00:00 TS 35.7517 -69.0631 main 575 575 _____________P -1 35.7517 -69.0631 TS 45 15 71
1861275N19299 1861 27 NA NA NOT_NAMED 1861-10-10 06:00:00 ET 36.0000 -68.2000 main 649 637 _____________O -1 36.0000 -68.2000 EX 45 12 65
1861275N19299 1861 27 NA NA NOT_NAMED 1861-10-10 09:00:00 ET 36.2488 -67.7245 main 643 617 _____________P -1 36.2488 -67.7245 EX 45 8 49
1861275N19299 1861 27 NA NA NOT_NAMED 1861-10-10 12:00:00 ET 36.5000 -67.5000 main 617 _____________O -1 36.5000 -67.5000 EX 45 6 36

IBTrACS Databaseについて

本データベースは、米国NOAAが公開する1842年以降の世界の熱帯低気圧のベストトラックデータアーカイブInternational Best Track Archive for Climate Stewardship (IBTrACS)を、ウェブで閲覧しやすい形式に変換したものです。

最終更新日:2021-10-21